sensor_id;sensor_type;location;lat;lon;timestamp;pressure;altitude;pressure_sealevel;temperature;humidity
61571;BME280;47463;49.884;10.010;2022-09-23T00:00:01;102458.99999999999;;;6.1;83
61571;BME280;47463;49.884;10.010;2022-09-23T00:05:01;102451;;;6.1;84
61571;BME280;47463;49.884;10.010;2022-09-23T00:10:01;102455;;;6.1;84
61571;BME280;47463;49.884;10.010;2022-09-23T00:15:01;102457;;;6.2;84
61571;BME280;47463;49.884;10.010;2022-09-23T00:20:01;102452;;;6.2;84
61571;BME280;47463;49.884;10.010;2022-09-23T00:25:01;102451;;;6.1;84
61571;BME280;47463;49.884;10.010;2022-09-23T00:30:01;102452;;;6.1;84
61571;BME280;47463;49.884;10.010;2022-09-23T00:35:01;102456;;;6.1;84
61571;BME280;47463;49.884;10.010;2022-09-23T00:40:01;102452;;;6.1;84
61571;BME280;47463;49.884;10.010;2022-09-23T00:45:01;102447;;;6;84
61571;BME280;47463;49.884;10.010;2022-09-23T00:50:02;102441.00000000001;;;6;84
61571;BME280;47463;49.884;10.010;2022-09-23T00:55:01;102443;;;6;84
61571;BME280;47463;49.884;10.010;2022-09-23T01:00:01;102432;;;5.9;84
61571;BME280;47463;49.884;10.010;2022-09-23T01:05:01;102421;;;5.9;84
61571;BME280;47463;49.884;10.010;2022-09-23T01:10:01;102420;;;5.8;84
61571;BME280;47463;49.884;10.010;2022-09-23T01:15:02;102418;;;5.8;84
61571;BME280;47463;49.884;10.010;2022-09-23T01:20:14;102418;;;5.7;85
61571;BME280;47463;49.884;10.010;2022-09-23T01:25:06;102414.00000000001;;;5.7;85
61571;BME280;47463;49.884;10.010;2022-09-23T01:30:04;102409.99999999999;;;5.7;85
61571;BME280;47463;49.884;10.010;2022-09-23T01:35:02;102406;;;5.7;85
61571;BME280;47463;49.884;10.010;2022-09-23T01:40:02;102406;;;5.6;85
61571;BME280;47463;49.884;10.010;2022-09-23T01:45:03;102405;;;5.4;85
61571;BME280;47463;49.884;10.010;2022-09-23T01:50:02;102402;;;5.5;85
61571;BME280;47463;49.884;10.010;2022-09-23T01:55:02;102394;;;5.4;85
61571;BME280;47463;49.884;10.010;2022-09-23T02:00:04;102391;;;5.4;85
61571;BME280;47463;49.884;10.010;2022-09-23T02:05:02;102394;;;5.4;85
61571;BME280;47463;49.884;10.010;2022-09-23T02:10:02;102391;;;5.4;85
61571;BME280;47463;49.884;10.010;2022-09-23T02:15:02;102388;;;5.5;86
61571;BME280;47463;49.884;10.010;2022-09-23T02:20:02;102384;;;5.5;86
61571;BME280;47463;49.884;10.010;2022-09-23T02:25:01;102381;;;5.3;86
61571;BME280;47463;49.884;10.010;2022-09-23T02:30:03;102377;;;5.3;86
61571;BME280;47463;49.884;10.010;2022-09-23T02:35:03;102373;;;5.2;86
61571;BME280;47463;49.884;10.010;2022-09-23T02:40:03;102367;;;5.2;86
61571;BME280;47463;49.884;10.010;2022-09-23T02:45:01;102365;;;5.5;86
61571;BME280;47463;49.884;10.010;2022-09-23T02:50:01;102359;;;5.5;86
61571;BME280;47463;49.884;10.010;2022-09-23T02:55:01;102358;;;5.4;85
61571;BME280;47463;49.884;10.010;2022-09-23T03:00:01;102349;;;5.5;86
61571;BME280;47463;49.884;10.010;2022-09-23T03:05:02;102344;;;5.5;86
61571;BME280;47463;49.884;10.010;2022-09-23T03:10:03;102342;;;5.6;86
61571;BME280;47463;49.884;10.010;2022-09-23T03:15:04;102337;;;5.6;85
61571;BME280;47463;49.884;10.010;2022-09-23T03:20:02;102340;;;5.4;85
61571;BME280;47463;49.884;10.010;2022-09-23T03:25:01;102337;;;5.2;85
61571;BME280;47463;49.884;10.010;2022-09-23T03:30:01;102333;;;5.2;85
61571;BME280;47463;49.884;10.010;2022-09-23T03:35:01;102333;;;5.1;86
61571;BME280;47463;49.884;10.010;2022-09-23T03:40:02;102327;;;5.1;86
61571;BME280;47463;49.884;10.010;2022-09-23T03:45:01;102324;;;5.2;86
61571;BME280;47463;49.884;10.010;2022-09-23T03:50:01;102312;;;5.1;86
61571;BME280;47463;49.884;10.010;2022-09-23T03:55:01;102313;;;5.2;86
61571;BME280;47463;49.884;10.010;2022-09-23T04:00:01;102306;;;5.1;86
61571;BME280;47463;49.884;10.010;2022-09-23T04:05:01;102308;;;5.1;86
61571;BME280;47463;49.884;10.010;2022-09-23T04:10:01;102298;;;5;86
61571;BME280;47463;49.884;10.010;2022-09-23T04:15:01;102294;;;5;86
61571;BME280;47463;49.884;10.010;2022-09-23T04:20:01;102294;;;4.9;86
61571;BME280;47463;49.884;10.010;2022-09-23T04:25:01;102291;;;4.8;86
61571;BME280;47463;49.884;10.010;2022-09-23T04:30:01;102284;;;4.7;86
61571;BME280;47463;49.884;10.010;2022-09-23T04:35:01;102285;;;4.6;86
61571;BME280;47463;49.884;10.010;2022-09-23T04:40:01;102283;;;4.6;86
61571;BME280;47463;49.884;10.010;2022-09-23T04:45:01;102284;;;4.5;87
61571;BME280;47463;49.884;10.010;2022-09-23T04:50:01;102289;;;4.5;87
61571;BME280;47463;49.884;10.010;2022-09-23T04:55:01;102293;;;4.5;87
61571;BME280;47463;49.884;10.010;2022-09-23T05:00:01;102292;;;4.5;87
61571;BME280;47463;49.884;10.010;2022-09-23T05:05:01;102295;;;4.4;87
61571;BME280;47463;49.884;10.010;2022-09-23T05:10:01;102298;;;4.5;87
61571;BME280;47463;49.884;10.010;2022-09-23T05:15:01;102294;;;4.4;87
61571;BME280;47463;49.884;10.010;2022-09-23T05:20:01;102293;;;4.4;87
61571;BME280;47463;49.884;10.010;2022-09-23T05:25:01;102294;;;4.6;87
61571;BME280;47463;49.884;10.010;2022-09-23T05:30:01;102299;;;4.7;87
61571;BME280;47463;49.884;10.010;2022-09-23T05:35:01;102307;;;5;87
61571;BME280;47463;49.884;10.010;2022-09-23T05:40:01;102304;;;5;87
61571;BME280;47463;49.884;10.010;2022-09-23T05:45:01;102303;;;5.5;86
61571;BME280;47463;49.884;10.010;2022-09-23T05:50:01;102306;;;5.8;86
61571;BME280;47463;49.884;10.010;2022-09-23T05:55:01;102304;;;5.8;86
61571;BME280;47463;49.884;10.010;2022-09-23T06:00:01;102302;;;6;85
61571;BME280;47463;49.884;10.010;2022-09-23T06:05:01;102305;;;6.5;84
61571;BME280;47463;49.884;10.010;2022-09-23T06:10:01;102307;;;6.5;84
61571;BME280;47463;49.884;10.010;2022-09-23T06:15:01;102308;;;7.1;83
61571;BME280;47463;49.884;10.010;2022-09-23T06:20:01;102311;;;7.1;83
61571;BME280;47463;49.884;10.010;2022-09-23T06:25:01;102307;;;7.6;82
61571;BME280;47463;49.884;10.010;2022-09-23T06:30:01;102299;;;8;82
61571;BME280;47463;49.884;10.010;2022-09-23T06:35:01;102294;;;8.3;81
61571;BME280;47463;49.884;10.010;2022-09-23T06:40:01;102293;;;8.6;79
61571;BME280;47463;49.884;10.010;2022-09-23T06:45:01;102290;;;8.8;78
61571;BME280;47463;49.884;10.010;2022-09-23T06:50:01;102294;;;9.2;77
61571;BME280;47463;49.884;10.010;2022-09-23T06:55:01;102293;;;9.5;76
61571;BME280;47463;49.884;10.010;2022-09-23T07:00:01;102280;;;9.3;75
61571;BME280;47463;49.884;10.010;2022-09-23T07:05:01;102292;;;9.4;76
61571;BME280;47463;49.884;10.010;2022-09-23T07:10:01;102281;;;9.3;75
61571;BME280;47463;49.884;10.010;2022-09-23T07:15:01;102282;;;9;76
61571;BME280;47463;49.884;10.010;2022-09-23T07:20:01;102286;;;9.1;76
61571;BME280;47463;49.884;10.010;2022-09-23T07:25:01;102259;;;9.5;76
61571;BME280;47463;49.884;10.010;2022-09-23T07:30:01;102281;;;9.2;77
61571;BME280;47463;49.884;10.010;2022-09-23T07:35:01;102264;;;9.2;77
61571;BME280;47463;49.884;10.010;2022-09-23T07:40:01;102274;;;9.4;76
61571;BME280;47463;49.884;10.010;2022-09-23T07:45:01;102268;;;9.5;76
61571;BME280;47463;49.884;10.010;2022-09-23T07:50:01;102283;;;9.7;76
61571;BME280;47463;49.884;10.010;2022-09-23T07:55:01;102293;;;10;76
61571;BME280;47463;49.884;10.010;2022-09-23T08:00:01;102289;;;10.2;75
61571;BME280;47463;49.884;10.010;2022-09-23T08:05:01;102278;;;10.6;74
61571;BME280;47463;49.884;10.010;2022-09-23T08:10:01;102272;;;10.8;74
61571;BME280;47463;49.884;10.010;2022-09-23T08:15:01;102276;;;10.9;73
61571;BME280;47463;49.884;10.010;2022-09-23T08:20:01;102244;;;11.1;73
61571;BME280;47463;49.884;10.010;2022-09-23T08:25:01;102257;;;11.1;72
61571;BME280;47463;49.884;10.010;2022-09-23T08:30:01;102252;;;11.3;72
61571;BME280;47463;49.884;10.010;2022-09-23T08:35:01;102246;;;11.4;72
61571;BME280;47463;49.884;10.010;2022-09-23T08:40:01;102243;;;11.6;71
61571;BME280;47463;49.884;10.010;2022-09-23T08:45:01;102229;;;11.5;70
61571;BME280;47463;49.884;10.010;2022-09-23T08:50:02;102222;;;11.4;71
61571;BME280;47463;49.884;10.010;2022-09-23T08:55:01;102232;;;11.3;71
61571;BME280;47463;49.884;10.010;2022-09-23T09:00:01;102236;;;11.5;71
61571;BME280;47463;49.884;10.010;2022-09-23T09:05:02;102249;;;12.2;71
61571;BME280;47463;49.884;10.010;2022-09-23T09:10:02;102241;;;12.3;69
61571;BME280;47463;49.884;10.010;2022-09-23T09:15:02;102219;;;12.2;69
61571;BME280;47463;49.884;10.010;2022-09-23T09:20:02;102227;;;12.3;69
61571;BME280;47463;49.884;10.010;2022-09-23T09:25:02;102219;;;12.6;69
61571;BME280;47463;49.884;10.010;2022-09-23T09:30:01;102220;;;12.7;69
61571;BME280;47463;49.884;10.010;2022-09-23T09:35:04;102223;;;13.4;68
61571;BME280;47463;49.884;10.010;2022-09-23T09:40:01;102198;;;13.6;67
61571;BME280;47463;49.884;10.010;2022-09-23T09:45:02;102176;;;14;66
61571;BME280;47463;49.884;10.010;2022-09-23T09:50:03;102170;;;14.6;64
61571;BME280;47463;49.884;10.010;2022-09-23T09:55:22;102177;;;14.5;64
61571;BME280;47463;49.884;10.010;2022-09-23T10:00:15;102162;;;14.6;63
61571;BME280;47463;49.884;10.010;2022-09-23T10:05:01;102153;;;14.4;61
61571;BME280;47463;49.884;10.010;2022-09-23T10:10:10;102154;;;14.5;61
61571;BME280;47463;49.884;10.010;2022-09-23T10:15:01;102147;;;14.4;61
61571;BME280;47463;49.884;10.010;2022-09-23T10:20:02;102150;;;14.4;62
61571;BME280;47463;49.884;10.010;2022-09-23T10:25:01;102151;;;15;61
61571;BME280;47463;49.884;10.010;2022-09-23T10:30:01;102157;;;15.2;61
61571;BME280;47463;49.884;10.010;2022-09-23T10:35:02;102142;;;15.4;60
61571;BME280;47463;49.884;10.010;2022-09-23T10:40:09;102135;;;15.6;59
61571;BME280;47463;49.884;10.010;2022-09-23T10:45:02;102145;;;15.7;59
61571;BME280;47463;49.884;10.010;2022-09-23T10:50:05;102139;;;16;58
61571;BME280;47463;49.884;10.010;2022-09-23T10:55:04;102132;;;16.2;58
61571;BME280;47463;49.884;10.010;2022-09-23T11:00:01;102135;;;16.4;57
61571;BME280;47463;49.884;10.010;2022-09-23T11:05:05;102131;;;16.4;57
61571;BME280;47463;49.884;10.010;2022-09-23T11:10:07;102118;;;16.4;57
61571;BME280;47463;49.884;10.010;2022-09-23T11:15:04;102096;;;16.6;56
61571;BME280;47463;49.884;10.010;2022-09-23T11:20:03;102092;;;16.6;55
61571;BME280;47463;49.884;10.010;2022-09-23T11:25:05;102081;;;16.7;55
61571;BME280;47463;49.884;10.010;2022-09-23T11:30:04;102081;;;17.1;55
61571;BME280;47463;49.884;10.010;2022-09-23T11:35:02;102057;;;16.7;54
61571;BME280;47463;49.884;10.010;2022-09-23T11:40:01;102057;;;16.7;54
61571;BME280;47463;49.884;10.010;2022-09-23T11:45:02;102047;;;17.3;54
61571;BME280;47463;49.884;10.010;2022-09-23T11:50:01;102012;;;17.8;52
61571;BME280;47463;49.884;10.010;2022-09-23T11:55:02;102015;;;17.1;51
61571;BME280;47463;49.884;10.010;2022-09-23T12:00:02;102027;;;17.4;50
61571;BME280;47463;49.884;10.010;2022-09-23T12:05:02;102015;;;17.7;51
61571;BME280;47463;49.884;10.010;2022-09-23T12:10:01;102022;;;18.2;50
61571;BME280;47463;49.884;10.010;2022-09-23T12:15:02;102004;;;17.8;51
61571;BME280;47463;49.884;10.010;2022-09-23T12:20:04;101998;;;17.3;52
61571;BME280;47463;49.884;10.010;2022-09-23T12:25:07;101978;;;18;49
61571;BME280;47463;49.884;10.010;2022-09-23T12:30:01;101961;;;18;48
61571;BME280;47463;49.884;10.010;2022-09-23T12:35:01;101959;;;17.8;49
61571;BME280;47463;49.884;10.010;2022-09-23T12:40:04;101959;;;17.7;49
61571;BME280;47463;49.884;10.010;2022-09-23T12:45:31;101963;;;17.7;49
61571;BME280;47463;49.884;10.010;2022-09-23T12:50:01;101975;;;18.1;49
61571;BME280;47463;49.884;10.010;2022-09-23T13:00:12;101959;;;17.9;49
61571;BME280;47463;49.884;10.010;2022-09-23T13:05:03;101959;;;18.7;48
61571;BME280;47463;49.884;10.010;2022-09-23T13:10:04;101958;;;19.1;47
61571;BME280;47463;49.884;10.010;2022-09-23T13:15:01;101965;;;19.1;47
61571;BME280;47463;49.884;10.010;2022-09-23T13:20:02;101962;;;18.4;51
61571;BME280;47463;49.884;10.010;2022-09-23T13:25:01;101950;;;18.2;50
61571;BME280;47463;49.884;10.010;2022-09-23T13:30:02;101949;;;18.7;50
61571;BME280;47463;49.884;10.010;2022-09-23T13:35:03;101925;;;18.5;49
61571;BME280;47463;49.884;10.010;2022-09-23T13:40:14;101917;;;18.5;49
61571;BME280;47463;49.884;10.010;2022-09-23T13:45:01;101899;;;18.7;49
61571;BME280;47463;49.884;10.010;2022-09-23T13:50:01;101891;;;18.4;50
61571;BME280;47463;49.884;10.010;2022-09-23T13:55:01;101884;;;18.5;48
61571;BME280;47463;49.884;10.010;2022-09-23T14:00:01;101891;;;18.4;49
61571;BME280;47463;49.884;10.010;2022-09-23T14:05:08;101903;;;18.9;49
61571;BME280;47463;49.884;10.010;2022-09-23T14:10:01;101905;;;19.1;47
61571;BME280;47463;49.884;10.010;2022-09-23T14:15:01;101883;;;19.3;47
61571;BME280;47463;49.884;10.010;2022-09-23T14:20:01;101881;;;19.1;48
61571;BME280;47463;49.884;10.010;2022-09-23T14:25:01;101872;;;18.8;48
61571;BME280;47463;49.884;10.010;2022-09-23T14:30:01;101872;;;18.6;48
61571;BME280;47463;49.884;10.010;2022-09-23T14:35:05;101857;;;18.5;48
61571;BME280;47463;49.884;10.010;2022-09-23T14:40:01;101853;;;18.5;48
61571;BME280;47463;49.884;10.010;2022-09-23T14:45:01;101845;;;18.5;48
61571;BME280;47463;49.884;10.010;2022-09-23T14:50:01;101852;;;18.6;48
61571;BME280;47463;49.884;10.010;2022-09-23T14:55:01;101856;;;18.7;49
61571;BME280;47463;49.884;10.010;2022-09-23T15:00:07;101843;;;19;49
61571;BME280;47463;49.884;10.010;2022-09-23T15:05:17;101835;;;18.2;50
61571;BME280;47463;49.884;10.010;2022-09-23T15:10:01;101830;;;18;50
61571;BME280;47463;49.884;10.010;2022-09-23T15:15:01;101828;;;17.9;50
61571;BME280;47463;49.884;10.010;2022-09-23T15:20:01;101816;;;17.9;50
61571;BME280;47463;49.884;10.010;2022-09-23T15:25:12;101802;;;17.8;51
61571;BME280;47463;49.884;10.010;2022-09-23T15:30:16;101794;;;17.8;50
61571;BME280;47463;49.884;10.010;2022-09-23T15:35:01;101788;;;17.9;50
61571;BME280;47463;49.884;10.010;2022-09-23T15:40:01;101785;;;17.9;50
61571;BME280;47463;49.884;10.010;2022-09-23T15:45:01;101805;;;17.9;50
61571;BME280;47463;49.884;10.010;2022-09-23T15:50:01;101799;;;17.8;51
61571;BME280;47463;49.884;10.010;2022-09-23T15:55:01;101806;;;17.9;51
61571;BME280;47463;49.884;10.010;2022-09-23T16:00:01;101790;;;17.7;51
61571;BME280;47463;49.884;10.010;2022-09-23T16:05:01;101792;;;17.6;52
61571;BME280;47463;49.884;10.010;2022-09-23T16:10:01;101801;;;17.3;54
61571;BME280;47463;49.884;10.010;2022-09-23T16:15:01;101801;;;17.1;55
61571;BME280;47463;49.884;10.010;2022-09-23T16:20:01;101800;;;17.1;55
61571;BME280;47463;49.884;10.010;2022-09-23T16:25:01;101817;;;16.3;63
61571;BME280;47463;49.884;10.010;2022-09-23T16:30:01;101829;;;15.6;64
61571;BME280;47463;49.884;10.010;2022-09-23T16:35:01;101831;;;15.2;66
61571;BME280;47463;49.884;10.010;2022-09-23T16:40:01;101850;;;14.9;67
61571;BME280;47463;49.884;10.010;2022-09-23T16:45:01;101851;;;14.6;68
61571;BME280;47463;49.884;10.010;2022-09-23T16:50:01;101856;;;14.3;69
61571;BME280;47463;49.884;10.010;2022-09-23T16:55:01;101876;;;13.9;70
61571;BME280;47463;49.884;10.010;2022-09-23T17:00:01;101885;;;13.8;70
61571;BME280;47463;49.884;10.010;2022-09-23T17:05:01;101876;;;13.4;72
61571;BME280;47463;49.884;10.010;2022-09-23T17:10:01;101884;;;13.4;72
61571;BME280;47463;49.884;10.010;2022-09-23T17:15:01;101880;;;12.8;74
61571;BME280;47463;49.884;10.010;2022-09-23T17:20:01;101880;;;12.5;74
61571;BME280;47463;49.884;10.010;2022-09-23T17:25:01;101896;;;12.3;75
61571;BME280;47463;49.884;10.010;2022-09-23T17:30:01;101881;;;12.1;75
61571;BME280;47463;49.884;10.010;2022-09-23T17:35:01;101902;;;12.1;75
61571;BME280;47463;49.884;10.010;2022-09-23T17:40:01;101886;;;12;75
61571;BME280;47463;49.884;10.010;2022-09-23T17:45:01;101886;;;12;75
61571;BME280;47463;49.884;10.010;2022-09-23T17:50:01;101910;;;11.8;75
61571;BME280;47463;49.884;10.010;2022-09-23T17:55:01;101913;;;11.8;75
61571;BME280;47463;49.884;10.010;2022-09-23T18:00:01;101922;;;11.5;76
61571;BME280;47463;49.884;10.010;2022-09-23T18:05:01;101918;;;11.4;76
61571;BME280;47463;49.884;10.010;2022-09-23T18:10:01;101912;;;11.2;76
61571;BME280;47463;49.884;10.010;2022-09-23T18:15:01;101907;;;11.1;76
61571;BME280;47463;49.884;10.010;2022-09-23T18:20:01;101909;;;11.1;76
61571;BME280;47463;49.884;10.010;2022-09-23T18:25:01;101907;;;11;77
61571;BME280;47463;49.884;10.010;2022-09-23T18:30:01;101903;;;10.8;77
61571;BME280;47463;49.884;10.010;2022-09-23T18:35:01;101910;;;10.9;76
61571;BME280;47463;49.884;10.010;2022-09-23T18:40:01;101909;;;10.9;76
61571;BME280;47463;49.884;10.010;2022-09-23T18:45:01;101921;;;10.8;76
61571;BME280;47463;49.884;10.010;2022-09-23T18:50:01;101928;;;10.8;76
61571;BME280;47463;49.884;10.010;2022-09-23T18:55:01;101909;;;10.7;76
61571;BME280;47463;49.884;10.010;2022-09-23T19:00:01;101907;;;10.9;75
61571;BME280;47463;49.884;10.010;2022-09-23T19:05:01;101906;;;10.9;76
61571;BME280;47463;49.884;10.010;2022-09-23T19:10:01;101912;;;11;75
61571;BME280;47463;49.884;10.010;2022-09-23T19:15:01;101907;;;10.8;76
61571;BME280;47463;49.884;10.010;2022-09-23T19:20:01;101909;;;10.9;76
61571;BME280;47463;49.884;10.010;2022-09-23T19:25:01;101921;;;11;75
61571;BME280;47463;49.884;10.010;2022-09-23T19:30:01;101919;;;10.7;76
61571;BME280;47463;49.884;10.010;2022-09-23T19:35:01;101916;;;10.9;76
61571;BME280;47463;49.884;10.010;2022-09-23T19:40:01;101905;;;10.9;75
61571;BME280;47463;49.884;10.010;2022-09-23T19:45:01;101887;;;11;75
61571;BME280;47463;49.884;10.010;2022-09-23T19:50:01;101886;;;11;75
61571;BME280;47463;49.884;10.010;2022-09-23T20:00:01;101892;;;11.2;75
61571;BME280;47463;49.884;10.010;2022-09-23T20:05:01;101882;;;11.1;74
61571;BME280;47463;49.884;10.010;2022-09-23T20:10:01;101898;;;11;75
61571;BME280;47463;49.884;10.010;2022-09-23T20:15:01;101897;;;10.7;76
61571;BME280;47463;49.884;10.010;2022-09-23T20:20:01;101891;;;10.6;76
61571;BME280;47463;49.884;10.010;2022-09-23T20:25:01;101888;;;10.7;76
61571;BME280;47463;49.884;10.010;2022-09-23T20:30:01;101895;;;10.5;77
61571;BME280;47463;49.884;10.010;2022-09-23T20:35:01;101893;;;10.5;77
61571;BME280;47463;49.884;10.010;2022-09-23T20:40:01;101879;;;10.5;76
61571;BME280;47463;49.884;10.010;2022-09-23T20:45:01;101888;;;10.3;77
61571;BME280;47463;49.884;10.010;2022-09-23T20:50:01;101887;;;10.2;78
61571;BME280;47463;49.884;10.010;2022-09-23T20:55:01;101875;;;10.1;78
61571;BME280;47463;49.884;10.010;2022-09-23T21:00:01;101870;;;10.1;78
61571;BME280;47463;49.884;10.010;2022-09-23T21:05:01;101868;;;10.4;77
61571;BME280;47463;49.884;10.010;2022-09-23T21:10:01;101879;;;10.4;77
61571;BME280;47463;49.884;10.010;2022-09-23T21:15:01;101879;;;10.4;77
61571;BME280;47463;49.884;10.010;2022-09-23T21:20:01;101877;;;10.4;77
61571;BME280;47463;49.884;10.010;2022-09-23T21:25:01;101870;;;10.2;77
61571;BME280;47463;49.884;10.010;2022-09-23T21:30:01;101867;;;10.2;78
61571;BME280;47463;49.884;10.010;2022-09-23T21:35:01;101875;;;10.1;78
61571;BME280;47463;49.884;10.010;2022-09-23T21:40:01;101873;;;10;79
61571;BME280;47463;49.884;10.010;2022-09-23T21:45:01;101875;;;9.9;79
61571;BME280;47463;49.884;10.010;2022-09-23T21:50:01;101871;;;9.9;79
61571;BME280;47463;49.884;10.010;2022-09-23T21:55:01;101872;;;9.8;79
61571;BME280;47463;49.884;10.010;2022-09-23T22:00:01;101866;;;9.8;79
61571;BME280;47463;49.884;10.010;2022-09-23T22:05:01;101862;;;10;78
61571;BME280;47463;49.884;10.010;2022-09-23T22:10:01;101860;;;9.9;78
61571;BME280;47463;49.884;10.010;2022-09-23T22:15:01;101859;;;9.9;78
61571;BME280;47463;49.884;10.010;2022-09-23T22:20:01;101855;;;10;78
61571;BME280;47463;49.884;10.010;2022-09-23T22:25:01;101855;;;9.9;78
61571;BME280;47463;49.884;10.010;2022-09-23T22:30:01;101857;;;9.7;79
61571;BME280;47463;49.884;10.010;2022-09-23T22:35:01;101854;;;9.7;79
61571;BME280;47463;49.884;10.010;2022-09-23T22:40:01;101854;;;9.6;79
61571;BME280;47463;49.884;10.010;2022-09-23T22:45:01;101852;;;9.6;79
61571;BME280;47463;49.884;10.010;2022-09-23T22:50:01;101859;;;9.4;80
61571;BME280;47463;49.884;10.010;2022-09-23T22:55:01;101867;;;9.5;80
61571;BME280;47463;49.884;10.010;2022-09-23T23:00:01;101864;;;9.4;80
61571;BME280;47463;49.884;10.010;2022-09-23T23:05:01;101861;;;9.4;80
61571;BME280;47463;49.884;10.010;2022-09-23T23:10:01;101852;;;9.4;80
61571;BME280;47463;49.884;10.010;2022-09-23T23:15:01;101858;;;9.3;81
61571;BME280;47463;49.884;10.010;2022-09-23T23:20:01;101853;;;9.4;80
61571;BME280;47463;49.884;10.010;2022-09-23T23:25:01;101841;;;9.5;80
61571;BME280;47463;49.884;10.010;2022-09-23T23:30:01;101839;;;9.4;79
61571;BME280;47463;49.884;10.010;2022-09-23T23:35:01;101835;;;9.4;80
61571;BME280;47463;49.884;10.010;2022-09-23T23:40:01;101837;;;9.3;80
61571;BME280;47463;49.884;10.010;2022-09-23T23:45:01;101825;;;9.2;80
61571;BME280;47463;49.884;10.010;2022-09-23T23:50:01;101822;;;9.1;81
61571;BME280;47463;49.884;10.010;2022-09-23T23:55:02;101822;;;9;81
